Time;durP1;ratioP1;P1;durP2;ratioP2;P2;SDS_P1;SDS_P2;PMS_P1;PMS_P2;Temp;Humidity;BMP_temperature;BMP_pressure;BME280_temperature;BME280_humidity;BME280_pressure;Samples;Min_cycle;Max_cycle;Signal;HPM_P1;HPM_P2
2023/02/13 00:01:20;;;;;;;;;;;;;;;23.79;21.04;100094.88;5102006;28;19924;-88
2023/02/13 00:03:46;;;;;;;;;;;;;;;24.24;20.54;100093.78;5107620;27;19949;-87
2023/02/13 00:06:12;;;;;;;;;;;;;;;24.33;19.85;100102.69;5112362;28;19923;-87
2023/02/13 00:08:38;;;;;;;;;;;;;;;23.42;20.42;100098.84;5097274;28;19923;-87
2023/02/13 00:11:04;;;;;;;;;;;;;;;23.42;21.43;100098.84;5104078;28;19919;-87
2023/02/13 00:13:30;;;;;;;;;;;;;;;24.02;20.95;100106.75;5111114;27;19965;-87
2023/02/13 00:15:57;;;;;;;;;;;;;;;24.40;20.54;100105.56;5084798;27;19963;-87
2023/02/13 00:18:23;;;;;;;;;;;;;;;24.29;19.89;100113.09;5117486;27;19920;-88
2023/02/13 00:20:56;;;;;;;;;;;;;;;24.30;20.69;100109.06;5115647;27;20012;-88
2023/02/13 00:23:22;;;;;;;;;;;;;;;24.54;19.69;100118.91;5107827;28;19920;-87
2023/02/13 00:25:48;;;;;;;;;;;;;;;24.76;19.87;100115.13;5112403;28;19920;-88
2023/02/13 00:28:14;;;;;;;;;;;;;;;24.93;19.88;100106.00;5106457;28;19927;-87
2023/02/13 00:30:40;;;;;;;;;;;;;;;25.05;19.77;100105.69;5097302;28;19924;-88
2023/02/13 00:33:06;;;;;;;;;;;;;;;25.15;19.89;100092.88;5100281;28;19920;-88
2023/02/13 00:35:32;;;;;;;;;;;;;;;24.72;19.38;100094.56;5109695;27;19930;-87
2023/02/13 00:37:58;;;;;;;;;;;;;;;22.52;22.07;100089.47;5110752;28;20303;-87
2023/02/13 00:40:24;;;;;;;;;;;;;;;20.53;24.27;100099.69;5085773;28;19927;-88
2023/02/13 00:42:50;;;;;;;;;;;;;;;20.51;24.43;100110.41;5104461;28;19920;-88
2023/02/13 00:45:16;;;;;;;;;;;;;;;21.83;23.07;100102.59;5104246;28;19916;-88
2023/02/13 00:47:42;;;;;;;;;;;;;;;22.71;21.52;100088.59;5105926;27;20030;-87
2023/02/13 00:50:08;;;;;;;;;;;;;;;22.92;21.68;100094.53;5104891;28;19962;-88
2023/02/13 00:52:34;;;;;;;;;;;;;;;23.34;21.05;100095.94;5112674;28;19920;-87
2023/02/13 00:55:00;;;;;;;;;;;;;;;23.55;20.64;100095.41;5106783;28;20284;-87
2023/02/13 00:57:26;;;;;;;;;;;;;;;23.83;20.79;100092.91;5109501;28;19920;-87
2023/02/13 00:59:52;;;;;;;;;;;;;;;24.01;20.33;100091.09;5112826;28;20403;-87
2023/02/13 01:02:18;;;;;;;;;;;;;;;23.54;20.45;100084.56;5113645;28;20023;-87
2023/02/13 01:04:44;;;;;;;;;;;;;;;23.49;21.37;100079.31;5105552;28;20015;-87
2023/02/13 01:07:10;;;;;;;;;;;;;;;24.03;20.87;100076.72;5091429;28;19924;-87
2023/02/13 01:09:36;;;;;;;;;;;;;;;24.22;20.58;100067.28;5112607;28;20480;-88
2023/02/13 01:12:02;;;;;;;;;;;;;;;24.43;20.44;100062.69;5113016;28;19945;-87
2023/02/13 01:14:29;;;;;;;;;;;;;;;24.70;20.19;100060.44;5109847;28;19938;-87
2023/02/13 01:16:55;;;;;;;;;;;;;;;24.95;20.17;100053.00;5081542;28;19927;-87
2023/02/13 01:19:21;;;;;;;;;;;;;;;25.08;20.00;100047.88;5104495;28;19920;-88
2023/02/13 01:21:47;;;;;;;;;;;;;;;25.14;19.71;100049.91;5102058;28;19924;-87
2023/02/13 01:24:13;;;;;;;;;;;;;;;24.99;19.33;100050.25;5103301;28;20355;-88
2023/02/13 01:26:40;;;;;;;;;;;;;;;24.03;20.53;100057.06;5100433;28;20286;-87
2023/02/13 01:29:06;;;;;;;;;;;;;;;24.06;20.94;100053.53;5103338;28;19943;-87
2023/02/13 01:31:32;;;;;;;;;;;;;;;24.47;20.35;100052.28;5108195;28;19919;-87
2023/02/13 01:33:58;;;;;;;;;;;;;;;24.22;20.65;100050.44;5105530;28;19920;-87
2023/02/13 01:36:25;;;;;;;;;;;;;;;24.27;20.63;100044.47;5100853;28;20011;-88
2023/02/13 01:38:52;;;;;;;;;;;;;;;24.53;20.61;100045.09;5104267;28;19924;-88
2023/02/13 01:41:18;;;;;;;;;;;;;;;24.81;20.47;100036.06;5106881;28;19916;-88
2023/02/13 01:43:45;;;;;;;;;;;;;;;25.03;20.07;100022.94;5116416;28;20435;-87
2023/02/13 01:46:14;;;;;;;;;;;;;;;25.01;20.31;100025.34;5101301;28;19916;-87
2023/02/13 01:48:40;;;;;;;;;;;;;;;23.48;21.42;100030.81;5108998;28;19920;-88
2023/02/13 01:51:08;;;;;;;;;;;;;;;23.73;21.42;100020.72;5099456;28;19967;-87
2023/02/13 01:53:38;;;;;;;;;;;;;;;24.30;20.57;100022.03;5104215;28;19920;-87
2023/02/13 01:56:09;;;;;;;;;;;;;;;24.71;20.38;100017.13;5097475;28;19920;-87
2023/02/13 01:58:38;;;;;;;;;;;;;;;24.91;20.27;100026.91;5114292;28;20018;-87
2023/02/13 02:01:05;;;;;;;;;;;;;;;24.94;20.02;100012.06;5105118;28;20264;-87
2023/02/13 02:03:36;;;;;;;;;;;;;;;24.92;20.28;100006.03;5113156;28;20379;-87
2023/02/13 02:06:03;;;;;;;;;;;;;;;24.59;20.64;100014.63;5110620;28;19927;-87
2023/02/13 02:08:30;;;;;;;;;;;;;;;24.64;20.52;100005.84;5109113;28;19973;-87
2023/02/13 02:11:01;;;;;;;;;;;;;;;24.55;20.42;100003.38;5098585;28;20774;-87
2023/02/13 02:13:28;;;;;;;;;;;;;;;24.28;20.75;100009.59;5100847;28;20315;-87
2023/02/13 02:15:54;;;;;;;;;;;;;;;24.39;21.35;100002.84;5103286;28;19920;-87
2023/02/13 02:18:21;;;;;;;;;;;;;;;24.62;20.13;99988.59;5119167;28;19947;-87
2023/02/13 02:20:47;;;;;;;;;;;;;;;24.24;20.97;99997.53;5091946;28;20303;-86
2023/02/13 02:23:23;;;;;;;;;;;;;;;24.29;21.14;99999.97;5109296;28;19927;-86
2023/02/13 02:25:52;;;;;;;;;;;;;;;24.24;20.42;99998.34;5100130;28;19926;-86
2023/02/13 02:28:36;;;;;;;;;;;;;;;22.33;22.86;99992.41;5109578;28;19964;-86
2023/02/13 02:31:08;;;;;;;;;;;;;;;22.82;22.68;99988.75;5100063;28;20019;-86
2023/02/13 02:34:06;;;;;;;;;;;;;;;23.34;21.58;99989.41;5099546;28;20283;-86
2023/02/13 02:36:44;;;;;;;;;;;;;;;23.73;21.45;99994.66;5055188;28;19931;-86
2023/02/13 02:39:34;;;;;;;;;;;;;;;23.83;21.61;100000.34;5090249;28;19920;-86
2023/02/13 02:42:17;;;;;;;;;;;;;;;23.85;21.43;100003.56;5068696;28;19972;-86
2023/02/13 02:44:54;;;;;;;;;;;;;;;23.39;22.24;100002.28;5107707;28;19958;-86
2023/02/13 02:50:33;;;;;;;;;;;;;;;24.34;20.85;99996.81;5108390;27;20011;-86
2023/02/13 02:53:10;;;;;;;;;;;;;;;24.65;20.95;99990.59;5114648;28;20855;-87
2023/02/13 02:55:36;;;;;;;;;;;;;;;24.66;20.24;99997.84;5102110;28;19920;-87
2023/02/13 03:06:45;;;;;;;;;;;;;;;23.98;20.95;100007.72;5115757;28;20353;-87
2023/02/13 03:14:56;;;;;;;;;;;;;;;25.04;20.51;100000.06;5110173;27;19927;-88
2023/02/13 03:23:14;;;;;;;;;;;;;;;24.87;20.79;99997.97;5065774;27;20295;-88
2023/02/13 03:25:43;;;;;;;;;;;;;;;24.99;20.22;99988.41;5107890;27;19920;-88
2023/02/13 03:31:31;;;;;;;;;;;;;;;25.29;19.98;99988.94;5112463;28;19931;-87
2023/02/13 03:34:00;;;;;;;;;;;;;;;24.61;20.53;99989.78;5105749;27;19920;-88
2023/02/13 03:39:38;;;;;;;;;;;;;;;24.02;21.13;100008.53;5109585;28;20394;-87
2023/02/13 03:42:06;;;;;;;;;;;;;;;24.02;21.31;100014.16;5103584;28;19920;-87
2023/02/13 03:44:34;;;;;;;;;;;;;;;23.88;21.10;100019.63;5097216;28;19957;-87
2023/02/13 03:47:02;;;;;;;;;;;;;;;24.08;21.04;100016.66;5110135;27;19920;-87
2023/02/13 03:52:31;;;;;;;;;;;;;;;22.02;23.85;100015.88;5110330;28;20402;-87
2023/02/13 04:00:39;;;;;;;;;;;;;;;18.77;28.65;100036.22;5110042;28;19988;-87
2023/02/13 04:03:05;;;;;;;;;;;;;;;18.98;28.33;100034.88;5109612;28;19920;-87
2023/02/13 04:05:35;;;;;;;;;;;;;;;19.26;27.91;100038.50;5113110;28;19920;-86
2023/02/13 04:08:01;;;;;;;;;;;;;;;19.88;26.84;100026.69;5108306;28;20501;-87
2023/02/13 04:10:30;;;;;;;;;;;;;;;20.27;26.49;100021.31;5104872;28;19965;-87
2023/02/13 04:12:56;;;;;;;;;;;;;;;18.94;28.41;100030.38;5107938;27;19924;-87
2023/02/13 04:15:34;;;;;;;;;;;;;;;18.57;28.40;100022.13;5102583;28;20045;-87
2023/02/13 04:18:09;;;;;;;;;;;;;;;18.83;28.68;100026.47;5109738;28;20015;-87
2023/02/13 04:20:36;;;;;;;;;;;;;;;18.96;28.77;100023.31;5104124;28;20404;-87
2023/02/13 04:23:03;;;;;;;;;;;;;;;19.13;28.20;100028.59;5102035;28;19944;-88
2023/02/13 04:25:29;;;;;;;;;;;;;;;19.39;27.89;100024.56;5112367;28;19920;-88
2023/02/13 04:27:55;;;;;;;;;;;;;;;18.71;29.38;100026.50;5110399;28;19927;-88
2023/02/13 04:30:21;;;;;;;;;;;;;;;19.73;28.19;100030.28;5111156;28;19924;-87
2023/02/13 04:32:48;;;;;;;;;;;;;;;21.00;26.06;100024.22;5107279;28;19977;-87
2023/02/13 04:35:14;;;;;;;;;;;;;;;20.46;26.98;100019.41;5113121;28;20389;-88
2023/02/13 04:37:40;;;;;;;;;;;;;;;21.21;26.18;100021.91;5092190;28;20011;-87
2023/02/13 04:40:06;;;;;;;;;;;;;;;20.47;27.57;100015.44;5112200;28;19966;-87
2023/02/13 04:42:32;;;;;;;;;;;;;;;20.57;27.31;100016.88;5110701;28;19965;-87
2023/02/13 04:44:58;;;;;;;;;;;;;;;21.05;26.74;100029.53;5110835;28;19923;-87
2023/02/13 04:47:24;;;;;;;;;;;;;;;21.12;26.72;100022.09;5108536;28;20329;-87
2023/02/13 04:49:50;;;;;;;;;;;;;;;21.72;25.62;100022.50;5101501;27;19919;-87
2023/02/13 04:52:16;;;;;;;;;;;;;;;22.23;25.31;100025.81;5111294;28;19928;-86
2023/02/13 04:54:42;;;;;;;;;;;;;;;22.69;24.64;100025.38;5112216;28;19962;-86
2023/02/13 04:57:09;;;;;;;;;;;;;;;22.48;24.95;100015.81;5104568;27;20367;-87
2023/02/13 04:59:35;;;;;;;;;;;;;;;22.55;24.98;100019.53;5109314;27;19947;-86
2023/02/13 05:02:01;;;;;;;;;;;;;;;23.20;23.88;100020.06;5111178;28;19919;-86
2023/02/13 05:04:27;;;;;;;;;;;;;;;23.62;23.79;100019.75;5105309;28;20441;-86
2023/02/13 05:06:53;;;;;;;;;;;;;;;23.64;23.47;100016.59;5109932;27;19927;-88
2023/02/13 05:09:19;;;;;;;;;;;;;;;23.84;23.38;100030.03;5107302;28;20259;-87
2023/02/13 05:11:45;;;;;;;;;;;;;;;23.72;23.53;100018.25;5106771;28;19920;-88
2023/02/13 05:14:11;;;;;;;;;;;;;;;24.05;23.25;100026.63;5108663;28;19926;-87
2023/02/13 05:16:37;;;;;;;;;;;;;;;24.50;23.11;100017.78;5104800;28;19942;-87
2023/02/13 05:19:03;;;;;;;;;;;;;;;24.96;22.43;100012.47;5100637;28;19920;-88
2023/02/13 05:24:14;;;;;;;;;;;;;;;24.65;22.37;100025.09;5100629;28;19927;-87
2023/02/13 05:26:40;;;;;;;;;;;;;;;24.46;22.42;100025.38;5109523;28;19924;-87
2023/02/13 05:29:21;;;;;;;;;;;;;;;23.86;23.10;100021.22;5098894;28;19920;-87
2023/02/13 05:31:50;;;;;;;;;;;;;;;23.96;22.86;100021.34;5104303;28;19932;-87
2023/02/13 05:34:16;;;;;;;;;;;;;;;24.36;23.23;100022.50;5105920;28;19920;-88
2023/02/13 05:36:42;;;;;;;;;;;;;;;24.74;22.40;100008.72;5109644;28;20295;-87
2023/02/13 05:39:08;;;;;;;;;;;;;;;25.01;22.39;100014.91;5111654;28;19928;-86
2023/02/13 05:41:34;;;;;;;;;;;;;;;25.13;22.07;100016.56;5108984;28;19927;-86
2023/02/13 05:44:00;;;;;;;;;;;;;;;24.88;22.47;100016.44;5097741;28;19972;-86
2023/02/13 05:46:26;;;;;;;;;;;;;;;24.42;22.74;100018.94;5103005;28;19957;-87
2023/02/13 05:48:52;;;;;;;;;;;;;;;23.32;23.96;100019.81;5102338;28;19985;-86
2023/02/13 05:51:19;;;;;;;;;;;;;;;23.05;24.73;100031.47;5099336;28;20394;-87
2023/02/13 05:53:45;;;;;;;;;;;;;;;23.28;24.49;100027.38;5105089;28;19955;-88
2023/02/13 05:56:11;;;;;;;;;;;;;;;23.52;23.95;100028.88;5111683;28;19919;-88
2023/02/13 05:58:37;;;;;;;;;;;;;;;23.24;24.29;100036.94;5115032;28;20334;-87
2023/02/13 06:01:03;;;;;;;;;;;;;;;23.18;24.21;100036.44;5108682;28;19924;-87
2023/02/13 06:03:30;;;;;;;;;;;;;;;23.01;24.92;100039.03;5106043;28;19919;-87
2023/02/13 06:05:56;;;;;;;;;;;;;;;23.34;24.36;100027.81;5108192;28;19967;-86
2023/02/13 06:08:22;;;;;;;;;;;;;;;23.68;23.91;100029.47;5102930;28;20011;-85
2023/02/13 06:10:49;;;;;;;;;;;;;;;23.38;24.01;100029.50;5107818;28;19972;-86
2023/02/13 06:13:15;;;;;;;;;;;;;;;23.71;23.80;100030.69;5114618;28;19920;-86
2023/02/13 06:15:42;;;;;;;;;;;;;;;23.76;23.83;100022.72;5119226;28;20359;-86
2023/02/13 06:18:08;;;;;;;;;;;;;;;24.38;23.38;100032.16;5101095;28;19922;-86
2023/02/13 06:20:34;;;;;;;;;;;;;;;24.53;22.78;100027.41;5097075;28;19920;-86
2023/02/13 06:23:00;;;;;;;;;;;;;;;24.61;22.85;100029.91;5097370;28;19923;-86
2023/02/13 06:25:26;;;;;;;;;;;;;;;24.48;22.97;100034.22;5096882;28;20018;-86
2023/02/13 06:27:53;;;;;;;;;;;;;;;24.69;22.90;100033.56;5115738;28;20287;-86
2023/02/13 06:30:19;;;;;;;;;;;;;;;24.97;22.76;100033.75;5117678;28;20014;-86
2023/02/13 06:32:46;;;;;;;;;;;;;;;25.14;22.58;100032.22;5117136;28;19920;-86
2023/02/13 06:35:12;;;;;;;;;;;;;;;25.39;22.73;100027.53;5117368;28;19971;-86
2023/02/13 06:37:38;;;;;;;;;;;;;;;25.56;21.96;100038.06;5117603;28;19920;-86
2023/02/13 06:40:05;;;;;;;;;;;;;;;25.50;21.98;100044.47;5111633;28;20459;-86
2023/02/13 06:42:31;;;;;;;;;;;;;;;25.25;22.10;100042.31;5109677;28;19927;-86
2023/02/13 06:44:57;;;;;;;;;;;;;;;25.15;22.27;100050.72;5097993;28;19923;-86
2023/02/13 06:47:23;;;;;;;;;;;;;;;24.78;22.86;100050.91;5100134;28;19920;-86
2023/02/13 06:49:50;;;;;;;;;;;;;;;24.46;23.08;100053.44;5103975;28;20279;-86
2023/02/13 06:52:16;;;;;;;;;;;;;;;23.72;23.60;100049.94;5116962;28;19967;-86
2023/02/13 06:54:42;;;;;;;;;;;;;;;24.02;23.99;100052.63;5116661;28;20374;-86
2023/02/13 06:57:08;;;;;;;;;;;;;;;24.39;23.52;100046.97;5098523;28;19961;-86
2023/02/13 06:59:34;;;;;;;;;;;;;;;24.58;23.48;100047.53;5116948;28;19916;-86
2023/02/13 07:02:00;;;;;;;;;;;;;;;24.87;23.23;100048.56;5116130;28;19916;-86
2023/02/13 07:04:26;;;;;;;;;;;;;;;24.60;23.17;100053.56;5116804;28;19916;-85
2023/02/13 07:06:56;;;;;;;;;;;;;;;23.64;24.12;100044.63;5096884;28;20556;-86
2023/02/13 07:09:22;;;;;;;;;;;;;;;24.16;24.10;100046.38;5116636;28;19915;-86
2023/02/13 07:11:48;;;;;;;;;;;;;;;24.66;23.58;100046.41;5116828;28;19915;-86
2023/02/13 07:14:14;;;;;;;;;;;;;;;24.55;23.52;100058.75;5098245;28;19923;-86
2023/02/13 07:16:41;;;;;;;;;;;;;;;22.98;25.63;100049.00;5100356;28;19939;-86
2023/02/13 07:19:07;;;;;;;;;;;;;;;23.64;24.57;100053.84;5096576;28;19923;-86
2023/02/13 07:21:33;;;;;;;;;;;;;;;23.88;24.62;100052.50;5095827;28;19920;-86
2023/02/13 07:23:59;;;;;;;;;;;;;;;23.89;24.67;100045.69;5097935;28;19915;-86
2023/02/13 07:26:25;;;;;;;;;;;;;;;24.09;24.21;100051.91;5116319;28;20045;-86
2023/02/13 07:28:51;;;;;;;;;;;;;;;23.76;24.75;100049.94;5115636;28;19961;-86
2023/02/13 07:31:17;;;;;;;;;;;;;;;23.92;24.77;100048.53;5116264;28;19923;-86
2023/02/13 07:33:47;;;;;;;;;;;;;;;24.49;24.03;100052.69;5115735;28;19920;-86
2023/02/13 07:36:13;;;;;;;;;;;;;;;24.87;23.99;100051.38;5095404;28;19924;-86
2023/02/13 07:38:39;;;;;;;;;;;;;;;24.19;24.15;100060.44;5095992;28;20291;-86
2023/02/13 07:41:05;;;;;;;;;;;;;;;23.46;25.30;100063.22;5097841;28;19921;-86
2023/02/13 07:43:31;;;;;;;;;;;;;;;23.64;25.16;100055.84;5095926;28;19939;-86
2023/02/13 07:45:57;;;;;;;;;;;;;;;24.17;24.94;100053.59;5095370;28;20372;-86
2023/02/13 07:48:26;;;;;;;;;;;;;;;24.78;23.87;100053.72;5106992;28;19923;-86
2023/02/13 07:50:52;;;;;;;;;;;;;;;24.31;24.26;100053.72;5114164;28;19923;-86
2023/02/13 07:53:18;;;;;;;;;;;;;;;24.59;24.12;100049.16;5095439;28;19918;-86
2023/02/13 07:55:44;;;;;;;;;;;;;;;23.59;25.43;100047.78;5094244;28;20026;-86
2023/02/13 07:58:10;;;;;;;;;;;;;;;24.30;25.14;100061.34;5105508;28;19911;-86
2023/02/13 08:00:36;;;;;;;;;;;;;;;23.75;25.36;100057.59;5115683;28;20422;-86
2023/02/13 08:03:03;;;;;;;;;;;;;;;24.68;24.60;100051.63;5115754;28;20016;-86
2023/02/13 08:05:30;;;;;;;;;;;;;;;24.19;25.01;100054.84;5115465;28;19915;-86
2023/02/13 08:07:56;;;;;;;;;;;;;;;24.64;24.89;100048.75;5113463;28;20406;-86
2023/02/13 08:13:08;;;;;;;;;;;;;;;25.20;23.97;100042.72;5095248;28;19959;-86
2023/02/13 08:15:34;;;;;;;;;;;;;;;25.30;23.92;100041.94;5108107;28;19930;-86
2023/02/13 08:18:00;;;;;;;;;;;;;;;25.16;24.11;100043.88;5115456;28;19920;-86
2023/02/13 08:20:26;;;;;;;;;;;;;;;25.39;24.16;100025.50;5115276;28;19916;-86
2023/02/13 08:22:52;;;;;;;;;;;;;;;25.79;23.85;100038.50;5097082;28;19922;-87
2023/02/13 08:25:19;;;;;;;;;;;;;;;25.57;23.84;100038.88;5110101;28;20386;-86
2023/02/13 08:27:45;;;;;;;;;;;;;;;24.71;24.51;100040.38;5112849;28;20324;-86
2023/02/13 08:30:11;;;;;;;;;;;;;;;24.03;25.51;100043.03;5094891;28;19922;-86
2023/02/13 08:32:37;;;;;;;;;;;;;;;24.08;25.70;100039.09;5108744;28;19930;-86
2023/02/13 08:35:04;;;;;;;;;;;;;;;23.98;25.79;100026.53;5115648;28;19924;-86
2023/02/13 08:37:30;;;;;;;;;;;;;;;25.05;24.84;100026.97;5115286;28;20291;-86
2023/02/13 08:39:56;;;;;;;;;;;;;;;25.21;24.49;100024.63;5115013;28;19916;-86
2023/02/13 08:42:22;;;;;;;;;;;;;;;23.68;26.20;100037.06;5109076;28;19920;-86
2023/02/13 08:44:48;;;;;;;;;;;;;;;23.60;27.25;100046.56;5111485;28;19924;-87
2023/02/13 08:47:14;;;;;;;;;;;;;;;22.35;28.67;100048.81;5114458;28;19923;-86
2023/02/13 08:49:40;;;;;;;;;;;;;;;22.83;27.42;100040.75;5128845;27;19915;-87
2023/02/13 08:52:06;;;;;;;;;;;;;;;22.82;27.52;100039.16;5135385;27;19923;-86
2023/02/13 08:54:32;;;;;;;;;;;;;;;22.25;28.50;100037.44;5135822;27;19978;-87
2023/02/13 08:56:58;;;;;;;;;;;;;;;21.77;28.94;100038.97;5135253;27;19959;-86
2023/02/13 08:59:24;;;;;;;;;;;;;;;21.89;29.62;100031.22;5122530;27;20283;-87
2023/02/13 09:01:50;;;;;;;;;;;;;;;23.06;27.70;100030.25;5094096;28;19923;-86
2023/02/13 09:04:19;;;;;;;;;;;;;;;23.38;26.79;100033.50;5094189;28;19916;-87
2023/02/13 09:06:45;;;;;;;;;;;;;;;23.28;26.70;100024.56;5109162;28;19920;-87
2023/02/13 09:09:11;;;;;;;;;;;;;;;22.91;26.93;100026.50;5114322;28;19919;-86
2023/02/13 09:11:37;;;;;;;;;;;;;;;22.18;29.38;100034.50;5095886;28;20014;-86
2023/02/13 09:14:03;;;;;;;;;;;;;;;22.58;28.46;100029.16;5114281;28;20011;-87
2023/02/13 09:16:30;;;;;;;;;;;;;;;21.96;29.29;100030.56;5113176;28;20462;-86
2023/02/13 09:18:56;;;;;;;;;;;;;;;23.09;27.66;100026.72;5114504;28;19923;-87
2023/02/13 09:21:22;;;;;;;;;;;;;;;22.14;28.58;100022.47;5108366;28;19928;-86
2023/02/13 09:23:49;;;;;;;;;;;;;;;22.24;29.29;100021.84;5108638;28;20291;-87
2023/02/13 09:26:16;;;;;;;;;;;;;;;21.76;30.36;100026.16;5114367;28;19952;-87
2023/02/13 09:28:43;;;;;;;;;;;;;;;22.59;28.84;100022.41;5099545;28;19916;-86
2023/02/13 09:31:14;;;;;;;;;;;;;;;23.19;28.38;100015.66;5093921;28;19916;-87
2023/02/13 09:33:40;;;;;;;;;;;;;;;22.07;29.03;100025.13;5094162;28;19920;-87
2023/02/13 09:36:08;;;;;;;;;;;;;;;21.74;29.35;100020.94;5093818;28;20364;-86
2023/02/13 09:38:34;;;;;;;;;;;;;;;23.15;27.71;100020.38;5093920;28;20451;-86
2023/02/13 09:41:08;;;;;;;;;;;;;;;22.14;28.16;100028.88;5110734;28;19916;-87
2023/02/13 09:43:49;;;;;;;;;;;;;;;23.07;27.59;100029.09;5114266;28;19960;-87
2023/02/13 09:46:15;;;;;;;;;;;;;;;23.06;27.72;100030.25;5114004;28;19961;-87
2023/02/13 09:48:44;;;;;;;;;;;;;;;24.09;26.50;100026.66;5095546;28;19916;-86
2023/02/13 09:51:13;;;;;;;;;;;;;;;23.86;26.46;100032.44;5101342;28;20018;-86
2023/02/13 09:53:42;;;;;;;;;;;;;;;23.01;27.57;100030.63;5097515;28;19923;-87
2023/02/13 09:56:34;;;;;;;;;;;;;;;21.73;28.62;100022.09;5099413;28;20283;-88
2023/02/13 09:59:05;;;;;;;;;;;;;;;21.35;30.06;100022.97;5114918;28;20376;-86
2023/02/13 10:01:38;;;;;;;;;;;;;;;21.63;29.30;100022.75;5117767;28;19915;-86
2023/02/13 10:04:16;;;;;;;;;;;;;;;22.72;28.43;100017.41;5117842;28;20339;-86
2023/02/13 10:06:50;;;;;;;;;;;;;;;22.96;28.69;100022.53;5117981;28;19943;-86
2023/02/13 10:09:27;;;;;;;;;;;;;;;22.88;28.18;100015.22;5098081;28;19920;-86
2023/02/13 10:11:56;;;;;;;;;;;;;;;22.47;29.47;100026.22;5114970;28;19920;-86
2023/02/13 10:14:45;;;;;;;;;;;;;;;21.19;30.94;100015.88;5129611;27;20439;-86
2023/02/13 10:17:35;;;;;;;;;;;;;;;21.17;30.93;100010.63;5106458;27;19915;-86
2023/02/13 10:20:03;;;;;;;;;;;;;;;20.42;31.35;100021.28;5124670;27;20370;-86
2023/02/13 10:22:32;;;;;;;;;;;;;;;20.35;31.15;100001.59;5138344;27;20010;-86
2023/02/13 10:25:03;;;;;;;;;;;;;;;20.46;31.55;100011.06;5118341;27;19916;-86
2023/02/13 10:27:40;;;;;;;;;;;;;;;21.48;29.52;100000.47;5117516;28;19920;-86
2023/02/13 10:30:18;;;;;;;;;;;;;;;21.98;28.99;100000.22;5117233;28;19923;-86
2023/02/13 10:32:50;;;;;;;;;;;;;;;21.37;30.61;99986.28;5117465;28;19919;-86
2023/02/13 10:35:27;;;;;;;;;;;;;;;22.13;28.95;99974.09;5117430;28;19919;-86
2023/02/13 10:37:56;;;;;;;;;;;;;;;22.75;27.96;99974.63;5118451;28;20225;-86
2023/02/13 10:40:30;;;;;;;;;;;;;;;22.78;28.42;99982.28;5113459;28;19919;-86
2023/02/13 10:43:06;;;;;;;;;;;;;;;22.06;30.53;99976.78;5097870;28;19924;-87
2023/02/13 10:45:56;;;;;;;;;;;;;;;19.63;33.58;99980.66;5105525;28;19985;-87
2023/02/13 10:48:36;;;;;;;;;;;;;;;21.98;29.30;99969.47;5103346;28;19928;-87
2023/02/13 10:51:29;;;;;;;;;;;;;;;21.87;30.05;99958.06;5102201;28;19927;-86
2023/02/13 10:54:14;;;;;;;;;;;;;;;20.88;31.58;99963.72;5115744;28;19961;-87
2023/02/13 10:56:49;;;;;;;;;;;;;;;22.38;28.81;99952.09;5117448;28;19915;-87
2023/02/13 10:59:33;;;;;;;;;;;;;;;23.13;27.90;99952.72;5100857;28;20311;-86
2023/02/13 11:02:20;;;;;;;;;;;;;;;23.33;27.54;99951.34;5105771;28;19931;-86
2023/02/13 11:04:46;;;;;;;;;;;;;;;22.64;28.73;99955.69;5115369;28;19923;-85
2023/02/13 11:07:14;;;;;;;;;;;;;;;22.86;27.92;99962.38;5105907;28;19963;-86
2023/02/13 11:09:41;;;;;;;;;;;;;;;22.05;29.68;99955.59;5112363;28;19924;-87
2023/02/13 11:12:24;;;;;;;;;;;;;;;21.32;29.51;99953.88;5096338;28;20371;-86
2023/02/13 11:14:55;;;;;;;;;;;;;;;22.27;27.93;99943.53;5100611;28;19920;-86
2023/02/13 11:17:21;;;;;;;;;;;;;;;21.71;29.23;99946.19;5110789;28;19920;-85
2023/02/13 11:19:52;;;;;;;;;;;;;;;22.92;27.78;99954.47;5116450;28;19939;-85
2023/02/13 11:22:32;;;;;;;;;;;;;;;23.20;26.62;99950.00;5114884;28;19920;-85
2023/02/13 11:25:00;;;;;;;;;;;;;;;22.85;27.49;99940.38;5104375;28;19920;-86
2023/02/13 11:27:29;;;;;;;;;;;;;;;23.69;25.96;99937.69;5096112;28;19923;-85
2023/02/13 11:29:57;;;;;;;;;;;;;;;22.39;27.62;99937.72;5096135;28;19920;-85
2023/02/13 11:32:24;;;;;;;;;;;;;;;21.74;29.57;99942.66;5095837;28;19966;-86
2023/02/13 11:34:50;;;;;;;;;;;;;;;22.30;28.62;99939.16;5098470;27;19939;-86
2023/02/13 11:37:21;;;;;;;;;;;;;;;23.32;27.07;99935.72;5115666;28;19927;-87
2023/02/13 11:39:49;;;;;;;;;;;;;;;22.70;27.52;99942.19;5116226;28;19916;-86
2023/02/13 11:42:20;;;;;;;;;;;;;;;22.47;29.38;99933.84;5115305;28;20265;-86
2023/02/13 11:44:51;;;;;;;;;;;;;;;22.52;28.28;99936.28;5115742;28;19931;-87
2023/02/13 11:47:29;;;;;;;;;;;;;;;22.16;28.71;99942.56;5109247;28;19920;-88
2023/02/13 11:49:55;;;;;;;;;;;;;;;22.62;29.53;99946.88;5112060;28;19965;-91
2023/02/13 11:52:23;;;;;;;;;;;;;;;22.34;28.44;99940.03;5102883;28;19973;-86
2023/02/13 11:54:57;;;;;;;;;;;;;;;20.86;32.22;99938.16;5114735;28;19922;-85
2023/02/13 11:57:32;;;;;;;;;;;;;;;22.45;28.25;99927.78;5115229;28;20046;-86
2023/02/13 11:59:59;;;;;;;;;;;;;;;23.18;27.24;99945.97;5116058;28;19916;-86
2023/02/13 12:02:25;;;;;;;;;;;;;;;22.05;28.91;99932.41;5115289;28;20424;-86
2023/02/13 12:04:52;;;;;;;;;;;;;;;21.45;30.22;99948.91;5115523;28;19924;-86
2023/02/13 12:07:18;;;;;;;;;;;;;;;19.49;32.96;99944.06;5101690;28;19920;-86
2023/02/13 12:09:45;;;;;;;;;;;;;;;20.58;30.71;99931.97;5094950;28;20464;-85
2023/02/13 12:12:16;;;;;;;;;;;;;;;21.91;28.65;99938.56;5096721;28;19916;-85
2023/02/13 12:14:43;;;;;;;;;;;;;;;21.25;30.97;99953.75;5096933;28;19922;-85
2023/02/13 12:17:21;;;;;;;;;;;;;;;20.27;32.34;99937.66;5115356;28;19965;-85
2023/02/13 12:19:53;;;;;;;;;;;;;;;19.41;33.69;99939.47;5115476;28;19916;-85
2023/02/13 12:22:27;;;;;;;;;;;;;;;19.80;33.05;99923.75;5115235;28;19916;-84
2023/02/13 12:25:11;;;;;;;;;;;;;;;20.87;30.30;99920.22;5106712;28;19919;-84
2023/02/13 12:27:41;;;;;;;;;;;;;;;22.82;27.97;99916.72;5115067;28;19920;-84
2023/02/13 12:30:10;;;;;;;;;;;;;;;22.27;28.76;99907.16;5115006;28;19915;-85
2023/02/13 12:32:55;;;;;;;;;;;;;;;23.35;28.19;99912.56;5115118;28;19919;-85
2023/02/13 12:35:30;;;;;;;;;;;;;;;23.60;27.19;99921.19;5096701;28;19979;-85
2023/02/13 12:37:59;;;;;;;;;;;;;;;24.09;25.94;99912.41;5115219;28;19972;-85
2023/02/13 12:40:38;;;;;;;;;;;;;;;23.18;26.71;99917.94;5113292;28;19916;-85
2023/02/13 12:43:23;;;;;;;;;;;;;;;22.40;28.50;99916.13;5114886;28;19937;-85
2023/02/13 12:46:08;;;;;;;;;;;;;;;21.65;29.03;99910.53;5114886;28;19922;-85
2023/02/13 12:48:52;;;;;;;;;;;;;;;22.48;28.25;99901.84;5094493;28;19926;-85
2023/02/13 12:51:18;;;;;;;;;;;;;;;23.61;27.09;99900.38;5094405;28;19961;-85
2023/02/13 12:54:16;;;;;;;;;;;;;;;25.03;25.63;99899.28;5094338;28;20309;-85
2023/02/13 12:57:05;;;;;;;;;;;;;;;24.62;26.86;99898.72;5060559;28;19916;-85
2023/02/13 12:59:31;;;;;;;;;;;;;;;23.89;27.09;99891.41;5075964;28;20368;-85
2023/02/13 13:02:02;;;;;;;;;;;;;;;24.46;25.24;99896.19;5094162;28;19942;-85
2023/02/13 13:04:46;;;;;;;;;;;;;;;23.96;25.92;99894.25;5118297;27;19919;-85
2023/02/13 13:07:37;;;;;;;;;;;;;;;24.08;25.69;99890.38;5124245;27;19943;-85
2023/02/13 13:10:12;;;;;;;;;;;;;;;22.86;27.55;99903.56;5093955;28;19961;-85
2023/02/13 13:12:50;;;;;;;;;;;;;;;23.19;27.59;99900.75;5094057;28;19998;-85
2023/02/13 13:15:45;;;;;;;;;;;;;;;23.14;26.75;99897.47;5094776;28;19917;-85
2023/02/13 13:18:16;;;;;;;;;;;;;;;23.21;27.26;99894.75;5038987;28;20360;-85
2023/02/13 13:20:54;;;;;;;;;;;;;;;23.27;26.75;99901.59;5099326;28;19916;-85
2023/02/13 13:23:23;;;;;;;;;;;;;;;24.18;25.88;99903.66;5105154;28;19945;-85
2023/02/13 13:26:08;;;;;;;;;;;;;;;24.24;25.46;99896.47;5105862;28;19916;-85
2023/02/13 13:28:37;;;;;;;;;;;;;;;24.97;24.41;99892.44;5113655;28;20324;-85
2023/02/13 13:31:03;;;;;;;;;;;;;;;24.09;25.28;99894.75;5113133;28;19920;-85
2023/02/13 13:33:31;;;;;;;;;;;;;;;23.43;26.31;99907.03;5114073;28;19920;-85
2023/02/13 13:36:00;;;;;;;;;;;;;;;22.25;28.13;99901.13;5114171;28;19934;-85